Time;durP1;ratioP1;P1;durP2;ratioP2;P2;SDS_P1;SDS_P2;PMS_P1;PMS_P2;Temp;Humidity;BMP_temperature;BMP_pressure;BME280_temperature;BME280_humidity;BME280_pressure;Samples;Min_cycle;Max_cycle;Signal;HPM_P1;HPM_P2
2024/03/02 00:00:29;;;;;;;10.77;7.15;;;;;;;;;;5050519;28;20432;-57
2024/03/02 00:02:56;;;;;;;11.45;7.63;;;;;;;;;;5053497;28;20076;-58
2024/03/02 00:05:23;;;;;;;11.32;8.02;;;;;;;;;;5050327;28;20136;-57
2024/03/02 00:07:56;;;;;;;10.98;7.60;;;;;;;;;;5050892;28;20076;-56
2024/03/02 00:10:29;;;;;;;10.18;7.13;;;;;;;;;;5052912;28;20509;-56
2024/03/02 00:12:56;;;;;;;12.43;7.95;;;;;;;;;;5062956;28;20048;-56
2024/03/02 00:15:43;;;;;;;11.23;7.65;;;;;;;;;;5052709;28;20502;-59
2024/03/02 00:18:12;;;;;;;10.63;7.38;;;;;;;;;;5057132;28;20486;-57
2024/03/02 00:20:38;;;;;;;12.40;7.35;;;;;;;;;;5054158;28;20045;-56
2024/03/02 00:23:08;;;;;;;10.07;7.63;;;;;;;;;;5049948;28;20055;-58
2024/03/02 00:25:43;;;;;;;11.40;8.65;;;;;;;;;;5049611;28;20057;-56
2024/03/02 00:28:18;;;;;;;13.27;7.55;;;;;;;;;;5048005;28;20090;-57
2024/03/02 00:31:04;;;;;;;12.65;8.88;;;;;;;;;;5047187;28;20053;-56
2024/03/02 00:33:33;;;;;;;12.38;7.82;;;;;;;;;;5046058;28;20044;-54
2024/03/02 00:36:00;;;;;;;11.25;8.27;;;;;;;;;;5049476;28;20153;-56
2024/03/02 00:38:30;;;;;;;12.32;8.63;;;;;;;;;;5054734;28;20554;-55
2024/03/02 00:40:58;;;;;;;11.73;8.02;;;;;;;;;;5049655;28;20091;-57
2024/03/02 00:43:44;;;;;;;11.77;8.80;;;;;;;;;;5049877;28;20445;-60
2024/03/02 00:46:13;;;;;;;12.10;8.05;;;;;;;;;;5049628;28;20477;-53
2024/03/02 00:48:46;;;;;;;11.70;7.25;;;;;;;;;;5052011;28;20491;-58
2024/03/02 00:51:13;;;;;;;10.85;7.70;;;;;;;;;;5048765;28;20126;-56
2024/03/02 00:53:41;;;;;;;11.65;6.95;;;;;;;;;;5049411;28;20056;-57
2024/03/02 00:56:11;;;;;;;10.10;7.43;;;;;;;;;;5049250;28;20045;-56
2024/03/02 00:58:38;;;;;;;12.55;8.25;;;;;;;;;;5050365;28;20132;-54
2024/03/02 01:01:04;;;;;;;10.27;7.75;;;;;;;;;;5050157;28;20095;-56
2024/03/02 01:03:32;;;;;;;12.57;7.57;;;;;;;;;;5048064;28;20092;-55
2024/03/02 01:05:59;;;;;;;12.48;7.63;;;;;;;;;;5049031;28;20131;-56
2024/03/02 01:08:26;;;;;;;10.98;7.70;;;;;;;;;;5049158;28;20076;-58
2024/03/02 01:10:54;;;;;;;10.95;7.70;;;;;;;;;;5050293;28;20044;-54
2024/03/02 01:13:21;;;;;;;11.80;7.65;;;;;;;;;;5054018;28;20047;-55
2024/03/02 01:15:48;;;;;;;12.65;8.93;;;;;;;;;;5058692;28;20048;-58
2024/03/02 01:18:14;;;;;;;12.52;7.70;;;;;;;;;;5051710;28;20052;-58
2024/03/02 01:20:41;;;;;;;10.85;7.28;;;;;;;;;;5052615;28;20045;-55
2024/03/02 01:23:08;;;;;;;11.15;7.68;;;;;;;;;;5056792;28;20053;-53
2024/03/02 01:25:35;;;;;;;12.23;8.07;;;;;;;;;;5054562;28;20064;-58
2024/03/02 01:28:04;;;;;;;10.60;7.38;;;;;;;;;;5050221;28;20052;-57
2024/03/02 01:30:30;;;;;;;11.90;7.78;;;;;;;;;;5046600;28;20127;-57
2024/03/02 01:32:58;;;;;;;11.02;7.20;;;;;;;;;;5051062;28;20548;-59
2024/03/02 01:35:26;;;;;;;12.20;7.55;;;;;;;;;;5050922;28;20132;-57
2024/03/02 01:37:53;;;;;;;11.63;7.72;;;;;;;;;;5049387;28;20049;-55
2024/03/02 01:40:20;;;;;;;11.25;7.60;;;;;;;;;;5050849;28;20099;-57
2024/03/02 01:42:47;;;;;;;11.05;7.20;;;;;;;;;;5055436;28;20088;-56
2024/03/02 01:45:15;;;;;;;12.35;7.70;;;;;;;;;;5050514;28;20128;-55
2024/03/02 01:47:41;;;;;;;11.88;8.35;;;;;;;;;;5047486;28;20128;-57
2024/03/02 01:50:11;;;;;;;11.77;7.53;;;;;;;;;;5050090;28;20045;-56
2024/03/02 01:52:38;;;;;;;12.15;7.88;;;;;;;;;;5054593;28;20411;-52
2024/03/02 01:55:05;;;;;;;11.80;7.85;;;;;;;;;;5053965;28;20143;-59
2024/03/02 01:57:32;;;;;;;13.73;9.02;;;;;;;;;;5055009;28;20075;-57
2024/03/02 01:59:59;;;;;;;10.68;7.43;;;;;;;;;;5047231;28;20103;-55
2024/03/02 02:02:27;;;;;;;12.55;8.77;;;;;;;;;;5051507;28;20084;-55
2024/03/02 02:04:54;;;;;;;13.38;8.07;;;;;;;;;;5054677;28;20103;-55
2024/03/02 02:07:21;;;;;;;11.07;7.70;;;;;;;;;;5054868;28;20084;-59
2024/03/02 02:09:47;;;;;;;10.98;7.28;;;;;;;;;;5054475;28;20132;-55
2024/03/02 02:12:15;;;;;;;11.98;7.95;;;;;;;;;;5054828;28;20052;-54
2024/03/02 02:14:48;;;;;;;11.05;6.95;;;;;;;;;;5054579;28;20083;-56
2024/03/02 02:17:15;;;;;;;10.02;7.72;;;;;;;;;;5055351;28;20639;-56
2024/03/02 02:19:43;;;;;;;10.25;6.93;;;;;;;;;;5054338;28;20471;-57
2024/03/02 02:22:12;;;;;;;11.10;7.65;;;;;;;;;;5059772;28;20479;-54
2024/03/02 02:24:41;;;;;;;9.95;6.97;;;;;;;;;;5054312;28;20045;-56
2024/03/02 02:27:07;;;;;;;10.18;7.00;;;;;;;;;;5054745;28;20072;-55
2024/03/02 02:29:34;;;;;;;12.45;8.27;;;;;;;;;;5056206;28;20048;-53
2024/03/02 02:32:01;;;;;;;11.30;7.30;;;;;;;;;;5060696;28;20079;-55
2024/03/02 02:34:30;;;;;;;10.57;7.57;;;;;;;;;;5056691;28;20072;-54
2024/03/02 02:36:57;;;;;;;11.30;7.53;;;;;;;;;;5054216;28;20072;-55
2024/03/02 02:39:25;;;;;;;11.18;7.70;;;;;;;;;;5055004;28;20056;-56
2024/03/02 02:41:52;;;;;;;10.98;7.70;;;;;;;;;;5055386;28;20480;-58
2024/03/02 02:44:18;;;;;;;11.65;7.57;;;;;;;;;;5049788;28;20045;-59
2024/03/02 02:46:45;;;;;;;10.77;7.30;;;;;;;;;;5057961;28;20049;-56
2024/03/02 02:49:12;;;;;;;9.73;6.85;;;;;;;;;;5054020;28;20087;-56
2024/03/02 02:51:38;;;;;;;10.70;7.00;;;;;;;;;;5054220;28;20102;-59
2024/03/02 02:54:05;;;;;;;12.15;7.97;;;;;;;;;;5053603;28;20099;-59
2024/03/02 02:56:33;;;;;;;10.15;6.30;;;;;;;;;;5053251;28;20482;-57
2024/03/02 02:59:00;;;;;;;10.88;7.18;;;;;;;;;;5053776;28;20132;-53
2024/03/02 03:01:27;;;;;;;9.25;6.28;;;;;;;;;;5053546;28;20128;-57
2024/03/02 03:03:53;;;;;;;11.38;7.55;;;;;;;;;;5053801;28;20045;-58
2024/03/02 03:06:20;;;;;;;9.93;6.70;;;;;;;;;;5053364;28;20128;-56
2024/03/02 03:08:47;;;;;;;9.93;6.20;;;;;;;;;;5053974;28;20462;-57
2024/03/02 03:11:14;;;;;;;11.70;7.05;;;;;;;;;;5053961;28;20528;-56
2024/03/02 03:13:42;;;;;;;11.10;6.72;;;;;;;;;;5053585;28;20423;-56
2024/03/02 03:16:09;;;;;;;10.18;6.68;;;;;;;;;;5053352;28;20053;-55
2024/03/02 03:18:36;;;;;;;9.45;6.20;;;;;;;;;;5050280;28;20099;-56
2024/03/02 03:21:03;;;;;;;10.55;6.97;;;;;;;;;;5052612;28;20072;-59
2024/03/02 03:23:29;;;;;;;10.70;7.38;;;;;;;;;;5053162;28;20128;-56
2024/03/02 03:25:56;;;;;;;10.48;7.00;;;;;;;;;;5052886;28;20167;-57
2024/03/02 03:28:23;;;;;;;10.43;7.05;;;;;;;;;;5053234;28;20069;-55
2024/03/02 03:30:51;;;;;;;10.75;7.20;;;;;;;;;;5053357;28;20060;-57
2024/03/02 03:33:17;;;;;;;10.13;7.00;;;;;;;;;;5053395;28;20049;-56
2024/03/02 03:35:44;;;;;;;11.70;7.22;;;;;;;;;;5053011;28;20079;-60
2024/03/02 03:38:11;;;;;;;10.90;6.97;;;;;;;;;;5053417;28;20080;-55
2024/03/02 03:40:38;;;;;;;11.45;7.03;;;;;;;;;;5053389;28;20049;-56
2024/03/02 03:43:05;;;;;;;11.00;7.20;;;;;;;;;;5053260;28;20132;-56
2024/03/02 03:45:32;;;;;;;10.48;7.40;;;;;;;;;;5052217;28;20135;-56
2024/03/02 03:48:00;;;;;;;12.07;7.22;;;;;;;;;;5056781;28;20526;-58
2024/03/02 03:50:26;;;;;;;10.10;7.40;;;;;;;;;;5055116;28;20053;-56
2024/03/02 03:52:53;;;;;;;10.63;8.02;;;;;;;;;;5050973;28;20485;-56
2024/03/02 03:55:20;;;;;;;11.00;7.60;;;;;;;;;;5054734;28;20075;-58
2024/03/02 03:57:46;;;;;;;12.50;7.60;;;;;;;;;;5053226;28;20100;-56
2024/03/02 04:00:14;;;;;;;9.73;7.25;;;;;;;;;;5052552;28;20128;-52
2024/03/02 04:02:41;;;;;;;11.35;7.90;;;;;;;;;;5052719;28;20045;-55
2024/03/02 04:05:10;;;;;;;11.40;7.85;;;;;;;;;;5052730;28;20428;-54
2024/03/02 04:07:40;;;;;;;11.27;7.78;;;;;;;;;;5052831;28;20127;-57
2024/03/02 04:10:10;;;;;;;11.18;7.80;;;;;;;;;;5052485;28;20053;-56
2024/03/02 04:12:37;;;;;;;11.35;7.40;;;;;;;;;;5052633;28;20155;-53
2024/03/02 04:15:06;;;;;;;11.25;8.05;;;;;;;;;;5051759;28;20053;-55
2024/03/02 04:17:35;;;;;;;11.43;8.25;;;;;;;;;;5052937;28;20463;-56
2024/03/02 04:20:04;;;;;;;10.40;7.65;;;;;;;;;;5052578;28;20041;-55
2024/03/02 04:22:34;;;;;;;10.82;7.78;;;;;;;;;;5052481;28;20568;-55
2024/03/02 04:25:01;;;;;;;12.05;8.18;;;;;;;;;;5051820;28;20132;-55
2024/03/02 04:27:28;;;;;;;11.68;7.88;;;;;;;;;;5051949;28;20129;-56
2024/03/02 04:29:54;;;;;;;10.30;7.00;;;;;;;;;;5052020;28;20081;-54
2024/03/02 04:32:21;;;;;;;12.43;8.32;;;;;;;;;;5052100;28;20080;-54
2024/03/02 04:34:48;;;;;;;11.15;8.23;;;;;;;;;;5051401;28;20087;-55
2024/03/02 04:37:15;;;;;;;12.38;8.00;;;;;;;;;;5052013;28;20076;-55
2024/03/02 04:39:43;;;;;;;12.75;7.68;;;;;;;;;;5051943;28;20463;-56
2024/03/02 04:42:09;;;;;;;13.00;8.55;;;;;;;;;;5051958;28;20072;-56
2024/03/02 04:44:37;;;;;;;14.60;9.05;;;;;;;;;;5045086;28;20041;-55
2024/03/02 04:47:04;;;;;;;12.52;8.73;;;;;;;;;;5051391;28;20060;-52
2024/03/02 04:49:31;;;;;;;13.48;8.50;;;;;;;;;;5050304;28;20152;-53
2024/03/02 04:51:58;;;;;;;14.77;8.63;;;;;;;;;;5055387;28;20056;-54
2024/03/02 04:54:25;;;;;;;14.57;8.63;;;;;;;;;;5055899;28;20084;-56
2024/03/02 04:56:52;;;;;;;13.85;8.98;;;;;;;;;;5053893;28;20415;-56
2024/03/02 04:59:19;;;;;;;12.93;8.88;;;;;;;;;;5052779;28;20338;-56
2024/03/02 05:01:47;;;;;;;12.55;9.10;;;;;;;;;;5046492;28;20215;-57
2024/03/02 05:04:14;;;;;;;14.00;8.77;;;;;;;;;;5053197;28;20135;-56
2024/03/02 05:06:41;;;;;;;12.80;9.32;;;;;;;;;;5054870;28;20099;-55
2024/03/02 05:09:07;;;;;;;14.35;9.40;;;;;;;;;;5051854;28;20493;-52
2024/03/02 05:12:09;;;;;;;14.43;8.70;;;;;;;;;;5051768;28;20080;-59
2024/03/02 05:14:38;;;;;;;14.90;8.75;;;;;;;;;;5049570;28;20041;-59
2024/03/02 05:17:05;;;;;;;12.57;8.98;;;;;;;;;;5051828;28;20136;-56
2024/03/02 05:19:32;;;;;;;15.20;11.10;;;;;;;;;;5051326;28;20131;-52
2024/03/02 05:21:58;;;;;;;14.23;10.00;;;;;;;;;;5044982;28;20128;-59
2024/03/02 05:24:27;;;;;;;15.02;10.07;;;;;;;;;;5050995;28;20124;-58
2024/03/02 05:26:53;;;;;;;13.32;8.85;;;;;;;;;;5051143;28;20397;-54
2024/03/02 05:29:20;;;;;;;13.82;9.00;;;;;;;;;;5055034;28;20180;-54
2024/03/02 05:31:48;;;;;;;14.13;8.82;;;;;;;;;;5051953;28;20103;-56
2024/03/02 05:34:15;;;;;;;13.60;9.52;;;;;;;;;;5052752;28;20496;-58
2024/03/02 05:36:42;;;;;;;13.95;10.00;;;;;;;;;;5051321;28;20466;-55
2024/03/02 05:39:10;;;;;;;13.13;8.90;;;;;;;;;;5050865;28;20488;-55
2024/03/02 05:41:37;;;;;;;13.65;8.80;;;;;;;;;;5052899;28;20069;-54
2024/03/02 05:44:05;;;;;;;12.27;8.27;;;;;;;;;;5050578;28;20052;-55
2024/03/02 05:46:31;;;;;;;13.98;8.93;;;;;;;;;;5051282;28;20461;-56
2024/03/02 05:49:00;;;;;;;13.35;9.10;;;;;;;;;;5056734;28;20091;-55
2024/03/02 05:51:26;;;;;;;12.88;9.05;;;;;;;;;;5055429;28;20457;-55
2024/03/02 05:53:53;;;;;;;12.63;9.13;;;;;;;;;;5050681;28;20083;-55
2024/03/02 05:56:20;;;;;;;13.73;9.45;;;;;;;;;;5051890;28;20088;-55
2024/03/02 05:58:57;;;;;;;15.10;9.80;;;;;;;;;;5051020;28;20081;-56
2024/03/02 06:01:28;;;;;;;13.38;9.20;;;;;;;;;;5051095;28;20389;-56
2024/03/02 06:03:55;;;;;;;15.32;10.23;;;;;;;;;;5046084;28;20049;-56
2024/03/02 06:06:23;;;;;;;13.13;9.05;;;;;;;;;;5050704;28;20088;-55
2024/03/02 06:08:50;;;;;;;14.40;9.70;;;;;;;;;;5051210;28;20076;-58
2024/03/02 06:11:16;;;;;;;15.73;9.43;;;;;;;;;;5050072;28;20534;-56
2024/03/02 06:13:43;;;;;;;15.02;9.30;;;;;;;;;;5050908;28;20076;-57
2024/03/02 06:16:10;;;;;;;13.75;9.55;;;;;;;;;;5042995;28;20081;-56
2024/03/02 06:18:37;;;;;;;13.98;9.27;;;;;;;;;;5050919;28;20091;-57
2024/03/02 06:21:04;;;;;;;13.30;8.82;;;;;;;;;;5050769;28;20053;-58
2024/03/02 06:23:32;;;;;;;12.57;8.93;;;;;;;;;;5050936;28;20088;-56
2024/03/02 06:25:58;;;;;;;13.30;9.27;;;;;;;;;;5050517;28;20100;-56
2024/03/02 06:28:25;;;;;;;15.60;9.77;;;;;;;;;;5050641;28;20132;-56
2024/03/02 06:30:52;;;;;;;14.85;10.27;;;;;;;;;;5050419;28;20563;-57
2024/03/02 06:33:18;;;;;;;14.13;9.43;;;;;;;;;;5050595;28;20495;-57
2024/03/02 06:35:45;;;;;;;13.68;9.80;;;;;;;;;;5050530;28;20073;-54
2024/03/02 06:38:12;;;;;;;16.70;11.05;;;;;;;;;;5053393;28;20044;-56
2024/03/02 06:40:40;;;;;;;14.75;9.93;;;;;;;;;;5054367;28;20088;-56
2024/03/02 06:43:07;;;;;;;14.25;9.90;;;;;;;;;;5056144;28;20095;-56
2024/03/02 06:45:34;;;;;;;16.73;10.75;;;;;;;;;;5049249;28;20557;-55
2024/03/02 06:48:01;;;;;;;16.38;10.05;;;;;;;;;;5055375;28;20049;-55
2024/03/02 06:50:28;;;;;;;16.25;10.25;;;;;;;;;;5054176;28;20136;-55
2024/03/02 06:52:55;;;;;;;14.95;9.93;;;;;;;;;;5054322;28;20057;-56
2024/03/02 06:55:22;;;;;;;15.80;11.07;;;;;;;;;;5054461;28;20488;-56
2024/03/02 06:57:50;;;;;;;16.17;10.32;;;;;;;;;;5053953;28;20083;-52
2024/03/02 07:00:20;;;;;;;16.65;10.98;;;;;;;;;;5053804;28;20483;-54
2024/03/02 07:02:46;;;;;;;16.92;11.43;;;;;;;;;;5053966;28;20492;-57
2024/03/02 07:05:14;;;;;;;14.50;10.35;;;;;;;;;;5053793;28;20140;-56
2024/03/02 07:07:40;;;;;;;17.38;10.85;;;;;;;;;;5055951;28;20048;-56
2024/03/02 07:10:08;;;;;;;15.65;10.48;;;;;;;;;;5052172;28;20094;-54
2024/03/02 07:12:35;;;;;;;15.70;9.68;;;;;;;;;;5053858;28;20136;-57
2024/03/02 07:15:24;;;;;;;15.38;10.32;;;;;;;;;;5053440;28;20128;-57
2024/03/02 07:17:51;;;;;;;14.45;9.63;;;;;;;;;;5054207;28;20472;-56
2024/03/02 07:20:18;;;;;;;15.95;10.27;;;;;;;;;;5052922;28;20453;-57
2024/03/02 07:22:44;;;;;;;14.88;9.88;;;;;;;;;;5054070;28;20445;-59
2024/03/02 07:25:11;;;;;;;14.32;10.00;;;;;;;;;;5045253;28;20136;-56
2024/03/02 07:27:38;;;;;;;13.27;9.02;;;;;;;;;;5053523;28;20123;-53
2024/03/02 07:30:08;;;;;;;14.82;10.20;;;;;;;;;;5051855;28;20144;-57
2024/03/02 07:32:34;;;;;;;13.43;10.02;;;;;;;;;;5053390;28;20080;-56
2024/03/02 07:35:03;;;;;;;13.43;10.13;;;;;;;;;;5052739;28;20510;-59
2024/03/02 07:37:30;;;;;;;12.95;9.55;;;;;;;;;;5053617;28;20052;-57
2024/03/02 07:39:57;;;;;;;13.65;9.98;;;;;;;;;;5051432;28;20461;-55
2024/03/02 07:42:23;;;;;;;15.48;10.50;;;;;;;;;;5054055;28;20045;-59
2024/03/02 07:44:50;;;;;;;14.23;10.43;;;;;;;;;;5059853;28;20106;-59
2024/03/02 07:47:18;;;;;;;17.45;10.38;;;;;;;;;;5057722;28;20077;-57
2024/03/02 07:49:46;;;;;;;16.50;11.25;;;;;;;;;;5051914;28;20334;-56
2024/03/02 07:52:12;;;;;;;16.63;11.68;;;;;;;;;;5045082;28;20044;-56
2024/03/02 07:54:39;;;;;;;15.65;10.40;;;;;;;;;;5052709;28;20469;-57
2024/03/02 07:57:06;;;;;;;17.88;11.95;;;;;;;;;;5053244;28;20103;-57
2024/03/02 07:59:32;;;;;;;18.67;12.50;;;;;;;;;;5052207;28;20080;-57
2024/03/02 08:02:00;;;;;;;17.63;11.30;;;;;;;;;;5053922;28;20120;-57
2024/03/02 08:04:28;;;;;;;16.70;11.40;;;;;;;;;;5052479;28;20057;-59
2024/03/02 08:06:55;;;;;;;19.77;12.57;;;;;;;;;;5057351;28;20099;-58
2024/03/02 08:09:22;;;;;;;19.02;12.32;;;;;;;;;;5052991;28;20048;-59
2024/03/02 08:11:49;;;;;;;17.85;11.73;;;;;;;;;;5053785;28;20076;-59
2024/03/02 08:14:16;;;;;;;16.40;11.75;;;;;;;;;;5058927;28;20481;-59
2024/03/02 08:16:43;;;;;;;20.65;13.43;;;;;;;;;;5054724;28;20041;-59
2024/03/02 08:19:11;;;;;;;18.27;12.32;;;;;;;;;;5054874;28;20049;-58
2024/03/02 08:21:39;;;;;;;18.45;12.75;;;;;;;;;;5053851;28;20535;-58
2024/03/02 08:24:06;;;;;;;18.55;11.98;;;;;;;;;;5054985;28;20135;-59
2024/03/02 08:26:33;;;;;;;19.10;13.48;;;;;;;;;;5054884;28;20136;-59
2024/03/02 08:29:01;;;;;;;18.42;12.43;;;;;;;;;;5047687;28;20136;-59
2024/03/02 08:31:28;;;;;;;19.98;12.38;;;;;;;;;;5052441;28;20045;-59
2024/03/02 08:33:55;;;;;;;19.08;12.63;;;;;;;;;;5054766;28;20127;-56
2024/03/02 08:36:22;;;;;;;18.67;11.30;;;;;;;;;;5051017;28;20135;-59
2024/03/02 08:38:51;;;;;;;18.08;11.52;;;;;;;;;;5049876;28;20468;-59
2024/03/02 08:41:18;;;;;;;17.20;11.10;;;;;;;;;;5052077;28;20052;-58
2024/03/02 08:43:45;;;;;;;18.88;12.10;;;;;;;;;;5052217;28;20049;-57
2024/03/02 08:46:12;;;;;;;20.80;11.52;;;;;;;;;;5053986;28;20096;-64
2024/03/02 08:48:38;;;;;;;15.43;10.55;;;;;;;;;;5055065;28;20481;-57
2024/03/02 08:51:07;;;;;;;16.65;10.38;;;;;;;;;;5053859;28;20445;-57
2024/03/02 08:53:34;;;;;;;15.63;10.35;;;;;;;;;;5056443;28;20052;-58
2024/03/02 08:56:05;;;;;;;16.63;10.98;;;;;;;;;;5050986;28;20257;-59
2024/03/02 08:58:31;;;;;;;15.70;10.95;;;;;;;;;;5051436;28;20053;-58
2024/03/02 09:00:59;;;;;;;17.20;11.57;;;;;;;;;;5050288;28;20087;-58
2024/03/02 09:03:25;;;;;;;17.33;11.80;;;;;;;;;;5054200;28;20133;-59
2024/03/02 09:05:52;;;;;;;19.02;12.00;;;;;;;;;;5057336;28;20083;-59
2024/03/02 09:08:19;;;;;;;17.15;11.20;;;;;;;;;;5056227;28;20126;-59
2024/03/02 09:10:45;;;;;;;17.67;12.05;;;;;;;;;;5055190;28;20703;-62
2024/03/02 09:13:13;;;;;;;17.73;12.10;;;;;;;;;;5051579;28;20088;-57
2024/03/02 09:15:40;;;;;;;18.00;11.20;;;;;;;;;;5049753;28;20496;-59
2024/03/02 09:18:06;;;;;;;18.27;12.43;;;;;;;;;;5055079;28;20106;-59
2024/03/02 09:20:33;;;;;;;19.70;12.18;;;;;;;;;;5051533;28;20424;-59
2024/03/02 09:23:00;;;;;;;18.20;10.95;;;;;;;;;;5051129;28;20076;-58
2024/03/02 09:25:27;;;;;;;17.33;11.50;;;;;;;;;;5056317;28;20076;-60
2024/03/02 09:27:54;;;;;;;16.60;10.95;;;;;;;;;;5050439;28;20133;-60
2024/03/02 09:30:22;;;;;;;17.70;11.50;;;;;;;;;;5055537;28;20049;-59
2024/03/02 09:32:48;;;;;;;20.70;12.48;;;;;;;;;;5047469;28;20072;-59
2024/03/02 09:35:15;;;;;;;18.70;12.45;;;;;;;;;;5053748;28;20080;-60
2024/03/02 09:37:42;;;;;;;17.10;11.07;;;;;;;;;;5051470;28;20080;-60
2024/03/02 09:40:10;;;;;;;18.38;11.93;;;;;;;;;;5049677;28;20044;-59
2024/03/02 09:42:38;;;;;;;17.05;11.35;;;;;;;;;;5044619;28;20535;-62
2024/03/02 09:45:06;;;;;;;18.10;12.88;;;;;;;;;;5055793;28;20088;-61
2024/03/02 09:47:34;;;;;;;16.13;11.32;;;;;;;;;;5052245;28;20120;-59
2024/03/02 09:50:01;;;;;;;15.60;9.65;;;;;;;;;;5051762;28;20080;-58
2024/03/02 09:52:28;;;;;;;16.85;10.30;;;;;;;;;;5053518;28;20064;-62
2024/03/02 09:54:54;;;;;;;16.98;10.45;;;;;;;;;;5055685;28;20084;-57
2024/03/02 09:57:21;;;;;;;17.88;10.68;;;;;;;;;;5053006;28;20091;-56
2024/03/02 09:59:48;;;;;;;14.40;10.40;;;;;;;;;;5051753;28;20481;-63
2024/03/02 10:02:14;;;;;;;16.25;10.98;;;;;;;;;;5057974;28;20489;-58
2024/03/02 10:04:44;;;;;;;18.67;10.77;;;;;;;;;;5051394;28;20100;-57
2024/03/02 10:07:13;;;;;;;17.25;11.90;;;;;;;;;;5051008;28;20060;-56
2024/03/02 10:09:40;;;;;;;18.17;11.27;;;;;;;;;;5040962;28;20049;-57
2024/03/02 10:12:09;;;;;;;18.25;11.80;;;;;;;;;;5052864;28;20072;-57
2024/03/02 10:14:36;;;;;;;18.77;11.05;;;;;;;;;;5063706;28;20076;-56
2024/03/02 10:17:04;;;;;;;19.23;11.55;;;;;;;;;;5064244;28;20085;-57
2024/03/02 10:19:32;;;;;;;16.55;11.65;;;;;;;;;;5055341;28;20044;-57
2024/03/02 10:22:02;;;;;;;19.67;11.27;;;;;;;;;;5054528;28;20072;-54
2024/03/02 10:24:36;;;;;;;21.25;12.13;;;;;;;;;;5054641;28;20088;-56
2024/03/02 10:27:03;;;;;;;17.95;10.30;;;;;;;;;;5054724;28;20041;-56
2024/03/02 10:29:30;;;;;;;17.75;10.57;;;;;;;;;;5057058;28;20091;-57
2024/03/02 10:31:59;;;;;;;18.13;10.68;;;;;;;;;;5059110;28;20103;-56
2024/03/02 10:34:26;;;;;;;16.27;9.73;;;;;;;;;;5053283;28;20491;-55
2024/03/02 10:36:53;;;;;;;18.25;10.90;;;;;;;;;;5063936;28;20134;-57
2024/03/02 10:39:22;;;;;;;16.75;9.98;;;;;;;;;;5054133;28;20084;-56
2024/03/02 10:41:52;;;;;;;17.13;9.50;;;;;;;;;;5053743;28;20052;-58
2024/03/02 10:44:20;;;;;;;17.45;10.48;;;;;;;;;;5053999;28;20099;-58
2024/03/02 10:46:48;;;;;;;14.55;9.60;;;;;;;;;;5058178;28;20140;-57
2024/03/02 10:49:15;;;;;;;17.67;9.77;;;;;;;;;;5055845;28;20095;-60
2024/03/02 10:51:42;;;;;;;15.50;9.32;;;;;;;;;;5049439;28;20076;-58
2024/03/02 10:54:09;;;;;;;19.42;11.20;;;;;;;;;;5055143;28;20063;-58
2024/03/02 10:56:40;;;;;;;18.30;11.25;;;;;;;;;;5056400;28;20049;-57
2024/03/02 10:59:15;;;;;;;20.05;11.23;;;;;;;;;;5055510;28;20135;-58
2024/03/02 11:01:44;;;;;;;18.77;11.70;;;;;;;;;;5053625;28;20080;-58
2024/03/02 11:04:16;;;;;;;17.35;10.73;;;;;;;;;;5060372;28;20462;-57
2024/03/02 11:06:45;;;;;;;;;;;;;;;;;;5053332;28;20136;-58
2024/03/02 11:09:13;;;;;;;15.55;9.73;;;;;;;;;;5049043;28;19971;-58
2024/03/02 11:11:44;;;;;;;17.25;9.77;;;;;;;;;;5053460;28;20076;-58
2024/03/02 11:14:14;;;;;;;;;;;;;;;;;;5053484;28;20041;-56
2024/03/02 11:16:41;;;;;;;14.67;9.20;;;;;;;;;;5053227;28;20011;-57
2024/03/02 11:19:11;;;;;;;17.85;10.45;;;;;;;;;;5052485;28;20289;-65
2024/03/02 11:21:40;;;;;;;19.48;11.77;;;;;;;;;;5057246;28;20503;-62
2024/03/02 11:24:34;;;;;;;21.40;11.98;;;;;;;;;;5058178;28;20983;-57
2024/03/02 11:27:07;;;;;;;23.02;12.55;;;;;;;;;;5057070;28;20049;-62
2024/03/02 11:29:47;;;;;;;20.35;11.90;;;;;;;;;;5053495;28;20086;-62
2024/03/02 11:32:19;;;;;;;22.60;14.68;;;;;;;;;;5064895;28;20106;-65
2024/03/02 11:34:48;;;;;;;21.00;11.68;;;;;;;;;;5057770;28;20045;-61
2024/03/02 11:37:16;;;;;;;20.77;12.23;;;;;;;;;;5053680;28;20135;-55
2024/03/02 11:39:44;;;;;;;20.92;12.57;;;;;;;;;;5052924;28;20072;-54
2024/03/02 11:42:15;;;;;;;22.60;13.77;;;;;;;;;;5053228;28;20144;-57
2024/03/02 11:44:44;;;;;;;21.08;12.75;;;;;;;;;;5053138;28;20489;-56
2024/03/02 11:47:14;;;;;;;22.52;13.15;;;;;;;;;;5053078;28;20041;-53
2024/03/02 11:49:44;;;;;;;21.77;12.43;;;;;;;;;;5058049;28;20075;-55
2024/03/02 11:52:11;;;;;;;19.83;12.88;;;;;;;;;;5054059;28;20055;-55
2024/03/02 11:54:40;;;;;;;22.63;12.50;;;;;;;;;;5057800;28;20068;-53
2024/03/02 11:57:08;;;;;;;18.33;12.25;;;;;;;;;;5054391;28;20485;-52
2024/03/02 11:59:36;;;;;;;19.83;12.35;;;;;;;;;;5058116;28;20048;-55
2024/03/02 12:02:03;;;;;;;22.65;11.75;;;;;;;;;;5059258;28;20076;-56
2024/03/02 12:04:31;;;;;;;20.48;12.75;;;;;;;;;;5052371;28;20044;-55
2024/03/02 12:07:00;;;;;;;19.73;11.70;;;;;;;;;;5052705;28;20041;-55
2024/03/02 12:09:27;;;;;;;21.20;13.10;;;;;;;;;;5052869;28;20049;-57
2024/03/02 12:12:05;;;;;;;22.17;13.00;;;;;;;;;;5053632;28;20483;-55
2024/03/02 12:14:32;;;;;;;20.15;11.50;;;;;;;;;;5051737;28;20143;-56
2024/03/02 12:17:00;;;;;;;19.67;11.48;;;;;;;;;;5054648;28;20096;-54
2024/03/02 12:19:29;;;;;;;20.38;11.98;;;;;;;;;;5052038;28;20084;-54
2024/03/02 12:21:56;;;;;;;15.65;10.45;;;;;;;;;;5057967;28;20398;-57
2024/03/02 12:24:24;;;;;;;17.17;11.75;;;;;;;;;;5057172;28;20488;-59
2024/03/02 12:26:51;;;;;;;21.17;12.60;;;;;;;;;;5052922;28;20139;-56
2024/03/02 12:29:19;;;;;;;18.55;10.93;;;;;;;;;;5055694;28;20134;-55
2024/03/02 12:31:46;;;;;;;22.05;12.23;;;;;;;;;;5058802;28;20068;-58
2024/03/02 12:34:15;;;;;;;24.33;12.30;;;;;;;;;;5054299;28;20055;-56
2024/03/02 12:36:42;;;;;;;19.23;11.35;;;;;;;;;;5051981;28;20053;-52
2024/03/02 12:39:10;;;;;;;18.80;11.00;;;;;;;;;;5056252;28;20110;-56
2024/03/02 12:41:37;;;;;;;17.73;11.18;;;;;;;;;;5058770;28;20492;-58
2024/03/02 12:44:04;;;;;;;26.48;15.00;;;;;;;;;;5056300;28;20053;-56
2024/03/02 12:46:31;;;;;;;24.10;14.43;;;;;;;;;;5056034;28;20539;-57
2024/03/02 12:48:58;;;;;;;21.30;12.90;;;;;;;;;;5052399;28;20110;-51
2024/03/02 12:51:27;;;;;;;17.83;11.45;;;;;;;;;;5054735;28;20541;-56
2024/03/02 12:53:55;;;;;;;16.88;11.55;;;;;;;;;;5060828;28;20084;-57
2024/03/02 12:56:22;;;;;;;15.63;9.82;;;;;;;;;;5052446;28;20052;-54
2024/03/02 12:58:48;;;;;;;16.05;10.48;;;;;;;;;;5058280;28;20492;-56
2024/03/02 13:01:18;;;;;;;15.35;9.85;;;;;;;;;;5052326;28;20080;-59
2024/03/02 13:03:45;;;;;;;16.15;10.60;;;;;;;;;;5049299;28;20088;-58
2024/03/02 13:06:12;;;;;;;19.23;12.30;;;;;;;;;;5050850;28;20076;-56
2024/03/02 13:08:40;;;;;;;16.92;11.85;;;;;;;;;;5051473;28;20103;-56
2024/03/02 13:11:07;;;;;;;17.38;11.25;;;;;;;;;;5051294;28;20048;-55
2024/03/02 13:13:34;;;;;;;18.40;11.63;;;;;;;;;;5051456;28;20076;-55
2024/03/02 13:16:01;;;;;;;17.52;11.52;;;;;;;;;;5051176;28;20092;-56
2024/03/02 13:18:31;;;;;;;15.57;11.10;;;;;;;;;;5051713;28;20049;-58
2024/03/02 13:20:57;;;;;;;18.27;11.68;;;;;;;;;;5051324;28;20099;-52
2024/03/02 13:23:24;;;;;;;18.98;12.25;;;;;;;;;;5051495;28;20135;-56
2024/03/02 13:25:52;;;;;;;18.30;11.25;;;;;;;;;;5050976;28;20081;-52
2024/03/02 13:28:19;;;;;;;17.83;12.38;;;;;;;;;;5051195;28;20474;-55
2024/03/02 13:30:45;;;;;;;18.13;12.10;;;;;;;;;;5051369;28;20132;-55
2024/03/02 13:33:12;;;;;;;15.85;10.05;;;;;;;;;;5051135;28;20072;-55
2024/03/02 13:35:39;;;;;;;12.75;8.45;;;;;;;;;;5050996;28;20128;-55
2024/03/02 13:38:05;;;;;;;16.55;9.68;;;;;;;;;;5051038;28;20087;-55
2024/03/02 13:40:35;;;;;;;16.15;10.70;;;;;;;;;;5051091;28;20132;-55
2024/03/02 13:43:03;;;;;;;15.50;9.52;;;;;;;;;;5050932;28;20051;-56
2024/03/02 13:45:30;;;;;;;15.07;9.90;;;;;;;;;;5050795;28;20139;-53
2024/03/02 13:47:57;;;;;;;17.00;9.90;;;;;;;;;;5050206;28;20045;-54
2024/03/02 13:50:23;;;;;;;17.20;10.75;;;;;;;;;;5051065;28;20068;-57
2024/03/02 13:52:50;;;;;;;15.13;10.15;;;;;;;;;;5050744;28;20084;-54
2024/03/02 13:55:17;;;;;;;14.48;10.05;;;;;;;;;;5050489;28;20136;-55
2024/03/02 13:57:44;;;;;;;15.70;10.43;;;;;;;;;;5050954;28;20041;-58
2024/03/02 14:00:13;;;;;;;15.77;9.85;;;;;;;;;;5050778;28;20118;-55
2024/03/02 14:02:40;;;;;;;15.68;10.25;;;;;;;;;;5050761;28;20055;-54
2024/03/02 14:05:10;;;;;;;15.45;9.85;;;;;;;;;;5050557;28;20081;-56
2024/03/02 14:07:38;;;;;;;16.75;9.93;;;;;;;;;;5050818;28;20052;-54
2024/03/02 14:10:05;;;;;;;16.70;9.95;;;;;;;;;;5050728;28;20083;-54
2024/03/02 14:12:32;;;;;;;14.45;8.80;;;;;;;;;;5050824;28;20203;-57
2024/03/02 14:15:02;;;;;;;15.23;9.52;;;;;;;;;;5050351;28;20087;-55
2024/03/02 14:17:31;;;;;;;17.40;9.93;;;;;;;;;;5050817;28;20052;-57
2024/03/02 14:19:58;;;;;;;15.97;10.00;;;;;;;;;;5050616;28;20041;-56
2024/03/02 14:22:25;;;;;;;16.40;9.73;;;;;;;;;;5050584;28;20540;-54
2024/03/02 14:24:52;;;;;;;16.30;9.38;;;;;;;;;;5050355;28;20131;-56
2024/03/02 14:27:19;;;;;;;15.57;8.88;;;;;;;;;;5050779;28;20129;-56
2024/03/02 14:29:46;;;;;;;13.07;8.35;;;;;;;;;;5051051;28;20084;-56